Delta Ocean — SVAU9 — position and weather

sailwx.info

Track history (hours):
 
Tides and Currents Weather Stations Pressure Air Temp Water Temp Dewpoint Dewpoint Depression Visibility Wind Speed Wind Dir Waves Ship Positions

Delta Ocean

Last reported at 2015-Mar-30 00:33 UTC. Time now 2015-Apr-01 13:14 UTC.
Position S 29°29' E 015°20'.

Length 274 m; draft 9.2 m.

Type: Tanker. MMSI: 240958000.

Date/timePositionNaut miles runAvg speedWind from/ knotsBaromVisibWave heightAir tempDewpointWater temp
2015-Mar-30 00:33S 29°29' E 015°20'9 7.8
2015-Mar-29 23:21S 29°37' E 015°24'287 7.0
2015-Mar-28 06:22S 33°53' E 017°58'7 2.4
2015-Mar-28 03:32S 33°59' E 017°53'  
2015-Mar-24 13:17S 33°10' E 028°14'49 9.7
2015-Mar-24 08:11S 32°36' E 028°57'6 9.2
2015-Mar-24 07:33S 32°32' E 029°02'10 8.9
2015-Mar-24 06:27S 32°25' E 029°10'19 8.7
2015-Mar-24 04:19S 32°12' E 029°25'132 8.9
2015-Mar-23 13:29S 30°24' E 030°55'7 7.8
2015-Mar-23 12:33S 30°17' E 030°58'13 6.7
2015-Mar-23 10:33S 30°04' E 031°03'6 6.1
2015-Mar-23 09:33S 29°59' E 031°06'4 1.4
2015-Mar-23 06:17S 29°55' E 031°08'1 0.9
2015-Mar-23 05:33S 29°55' E 031°08'1 1.1
2015-Mar-23 04:33S 29°56' E 031°07'1 1.2
2015-Mar-23 03:33S 29°57' E 031°06'1 1.3
2015-Mar-23 02:33S 29°58' E 031°05'2 1.5
2015-Mar-23 01:33S 29°59' E 031°04'5 5.4
2015-Mar-23 00:33S 30°01' E 030°58'1 0.5
2015-Mar-22 23:24S 30°00' E 030°59'0 0.1
2015-Mar-22 22:18S 30°00' E 030°58'0 0.0
2015-Mar-22 21:30S 30°00' E 030°58'0 0.0
2015-Mar-22 20:30S 30°00' E 030°58'0 0.0
2015-Mar-22 19:30S 30°00' E 030°58'0 0.0
2015-Mar-22 12:30S 30°00' E 030°58'0 0.0
2015-Mar-22 06:33S 30°00' E 030°59'4 3.7
2015-Mar-22 05:33S 29°59' E 031°02'3 2.6
2015-Mar-22 04:33S 29°57' E 031°05'4 3.8
2015-Mar-22 03:33S 29°54' E 031°08'7 7.4
2015-Mar-22 02:33S 29°48' E 031°11'1 1.1
2015-Mar-22 01:31S 29°46' E 031°11'0 0.0
2015-Mar-21 23:13S 29°46' E 031°11'0 0.0
2015-Mar-21 21:31S 29°46' E 031°11'0 0.0
2015-Mar-21 20:31S 29°46' E 031°11'0 0.0
2015-Mar-21 19:31S 29°46' E 031°11'0 0.1
2015-Mar-21 18:25S 29°46' E 031°11'0 0.5
2015-Mar-21 17:31S 29°47' E 031°11'0 0.0
2015-Mar-21 16:31S 29°47' E 031°11'0 0.0
2015-Mar-21 15:31S 29°47' E 031°11'0 0.0
2015-Mar-21 14:31S 29°47' E 031°11'0 0.1
2015-Mar-21 11:25S 29°47' E 031°11'0 0.2
2015-Mar-21 10:31S 29°46' E 031°11'0 0.0
2015-Mar-21 09:31S 29°46' E 031°11'0 0.1
2015-Mar-21 08:31S 29°46' E 031°11'0 0.1
2015-Mar-21 07:31S 29°46' E 031°11'0 0.0
2015-Mar-21 06:31S 29°46' E 031°11'0 0.0
2015-Mar-21 05:31S 29°46' E 031°11'0 0.0
2015-Mar-21 01:25S 29°46' E 031°11'0 0.0
2015-Mar-20 23:31S 29°46' E 031°11'0 0.0
2015-Mar-20 22:31S 29°46' E 031°11'0 0.0
2015-Mar-20 21:31S 29°46' E 031°11'0 0.0
2015-Mar-20 20:31S 29°46' E 031°11'0 0.0
2015-Mar-20 19:13S 29°46' E 031°11'0 0.0
2015-Mar-20 18:31S 29°46' E 031°11'0 0.0
2015-Mar-20 17:31S 29°46' E 031°11'0 0.0
2015-Mar-20 16:31S 29°46' E 031°11'0 0.0
2015-Mar-20 15:31S 29°46' E 031°11'0 0.0
2015-Mar-20 14:31S 29°46' E 031°11'0 0.0
2015-Mar-20 13:31S 29°46' E 031°11'0 0.0
2015-Mar-20 12:31S 29°46' E 031°11'0 0.0
2015-Mar-20 11:31S 29°46' E 031°11'0 0.0
2015-Mar-20 10:31S 29°46' E 031°11'0 0.0
2015-Mar-20 09:31S 29°46' E 031°11'0 0.0
2015-Mar-20 08:31S 29°46' E 031°11'0 0.0
2015-Mar-20 07:31S 29°46' E 031°11'0 0.0
2015-Mar-20 06:31S 29°46' E 031°11'0 0.0
2015-Mar-20 05:31S 29°46' E 031°11'0 0.0
2015-Mar-20 04:31S 29°46' E 031°11'0 0.0
2015-Mar-20 03:31S 29°46' E 031°11'0 0.0
2015-Mar-20 02:31S 29°46' E 031°11'0 0.0
2015-Mar-20 01:31S 29°46' E 031°11'  
Track history (hours):
 
Tides and Currents Weather Stations Pressure Air Temp Water Temp Dewpoint Dewpoint Depression Visibility Wind Speed Wind Dir Waves Ship Positions

Delta Ocean

Last reported at 2015-Mar-30 00:33 UTC. Time now 2015-Apr-01 13:14 UTC.
Position S 29°29' E 015°20'.

Length 274 m; draft 9.2 m.

Type: Tanker. MMSI: 240958000.

Date/timePositionNaut miles runAvg speedWind from/ knotsBaromVisibWave heightAir tempDewpointWater temp
2015-Mar-30 00:33S 29°29' E 015°20'9 7.8
2015-Mar-29 23:21S 29°37' E 015°24'287 7.0
2015-Mar-28 06:22S 33°53' E 017°58'7 2.4
2015-Mar-28 03:32S 33°59' E 017°53'  
2015-Mar-24 13:17S 33°10' E 028°14'49 9.7
2015-Mar-24 08:11S 32°36' E 028°57'6 9.2
2015-Mar-24 07:33S 32°32' E 029°02'10 8.9
2015-Mar-24 06:27S 32°25' E 029°10'19 8.7
2015-Mar-24 04:19S 32°12' E 029°25'132 8.9
2015-Mar-23 13:29S 30°24' E 030°55'7 7.8
2015-Mar-23 12:33S 30°17' E 030°58'13 6.7
2015-Mar-23 10:33S 30°04' E 031°03'6 6.1
2015-Mar-23 09:33S 29°59' E 031°06'4 1.4
2015-Mar-23 06:17S 29°55' E 031°08'1 0.9
2015-Mar-23 05:33S 29°55' E 031°08'1 1.1
2015-Mar-23 04:33S 29°56' E 031°07'1 1.2
2015-Mar-23 03:33S 29°57' E 031°06'1 1.3
2015-Mar-23 02:33S 29°58' E 031°05'2 1.5
2015-Mar-23 01:33S 29°59' E 031°04'5 5.4
2015-Mar-23 00:33S 30°01' E 030°58'1 0.5
2015-Mar-22 23:24S 30°00' E 030°59'0 0.1
2015-Mar-22 22:18S 30°00' E 030°58'0 0.0
2015-Mar-22 21:30S 30°00' E 030°58'0 0.0
2015-Mar-22 20:30S 30°00' E 030°58'0 0.0
2015-Mar-22 19:30S 30°00' E 030°58'0 0.0
2015-Mar-22 12:30S 30°00' E 030°58'0 0.0
2015-Mar-22 06:33S 30°00' E 030°59'4 3.7
2015-Mar-22 05:33S 29°59' E 031°02'3 2.6
2015-Mar-22 04:33S 29°57' E 031°05'4 3.8
2015-Mar-22 03:33S 29°54' E 031°08'7 7.4
2015-Mar-22 02:33S 29°48' E 031°11'1 1.1
2015-Mar-22 01:31S 29°46' E 031°11'0 0.0
2015-Mar-21 23:13S 29°46' E 031°11'0 0.0
2015-Mar-21 21:31S 29°46' E 031°11'0 0.0
2015-Mar-21 20:31S 29°46' E 031°11'0 0.0
2015-Mar-21 19:31S 29°46' E 031°11'0 0.1
2015-Mar-21 18:25S 29°46' E 031°11'0 0.5
2015-Mar-21 17:31S 29°47' E 031°11'0 0.0
2015-Mar-21 16:31S 29°47' E 031°11'0 0.0
2015-Mar-21 15:31S 29°47' E 031°11'0 0.0
2015-Mar-21 14:31S 29°47' E 031°11'0 0.1
2015-Mar-21 11:25S 29°47' E 031°11'0 0.2
2015-Mar-21 10:31S 29°46' E 031°11'0 0.0
2015-Mar-21 09:31S 29°46' E 031°11'0 0.1
2015-Mar-21 08:31S 29°46' E 031°11'0 0.1
2015-Mar-21 07:31S 29°46' E 031°11'0 0.0
2015-Mar-21 06:31S 29°46' E 031°11'0 0.0
2015-Mar-21 05:31S 29°46' E 031°11'0 0.0
2015-Mar-21 01:25S 29°46' E 031°11'0 0.0
2015-Mar-20 23:31S 29°46' E 031°11'0 0.0
2015-Mar-20 22:31S 29°46' E 031°11'0 0.0
2015-Mar-20 21:31S 29°46' E 031°11'0 0.0
2015-Mar-20 20:31S 29°46' E 031°11'0 0.0
2015-Mar-20 19:13S 29°46' E 031°11'0 0.0
2015-Mar-20 18:31S 29°46' E 031°11'0 0.0
2015-Mar-20 17:31S 29°46' E 031°11'0 0.0
2015-Mar-20 16:31S 29°46' E 031°11'0 0.0
2015-Mar-20 15:31S 29°46' E 031°11'0 0.0
2015-Mar-20 14:31S 29°46' E 031°11'0 0.0
2015-Mar-20 13:31S 29°46' E 031°11'0 0.0
2015-Mar-20 12:31S 29°46' E 031°11'0 0.0
2015-Mar-20 11:31S 29°46' E 031°11'0 0.0
2015-Mar-20 10:31S 29°46' E 031°11'0 0.0
2015-Mar-20 09:31S 29°46' E 031°11'0 0.0
2015-Mar-20 08:31S 29°46' E 031°11'0 0.0
2015-Mar-20 07:31S 29°46' E 031°11'0 0.0
2015-Mar-20 06:31S 29°46' E 031°11'0 0.0
2015-Mar-20 05:31S 29°46' E 031°11'0 0.0
2015-Mar-20 04:31S 29°46' E 031°11'0 0.0
2015-Mar-20 03:31S 29°46' E 031°11'0 0.0
2015-Mar-20 02:31S 29°46' E 031°11'0 0.0
2015-Mar-20 01:31S 29°46' E 031°11'  

Dump ship's entire track history